Time;durP1;ratioP1;P1;durP2;ratioP2;P2;SDS_P1;SDS_P2;PMS_P1;PMS_P2;Temp;Humidity;BMP_temperature;BMP_pressure;BME280_temperature;BME280_humidity;BME280_pressure;Samples;Min_cycle;Max_cycle;Signal;HPM_P1;HPM_P2
2022/11/08 00:01:48;;;;;;;10.30;4.53;;;8.80;99.90;;;7.69;100.00;97346.38;5032389;28;20461;-74
2022/11/08 00:04:17;;;;;;;11.02;5.38;;;8.80;99.90;;;7.66;100.00;97356.59;5031445;28;20808;-75
2022/11/08 00:14:59;;;;;;;12.18;4.93;;;8.60;99.90;;;7.55;100.00;97344.22;5031232;28;20398;-74
2022/11/08 00:17:27;;;;;;;12.02;4.95;;;8.60;99.90;;;7.56;100.00;97340.56;5014328;28;20457;-75
2022/11/08 00:19:54;;;;;;;12.00;5.10;;;8.60;99.90;;;7.54;100.00;97345.25;5031991;28;20803;-74
2022/11/08 00:22:21;;;;;;;8.57;4.72;;;8.60;99.90;;;7.51;100.00;97336.00;5031983;28;20423;-74
2022/11/08 00:24:47;;;;;;;10.50;4.82;;;8.60;99.90;;;7.48;100.00;97338.28;5030987;28;20407;-74
2022/11/08 00:27:16;;;;;;;11.55;5.35;;;8.50;99.90;;;7.43;100.00;97338.19;5031677;28;20426;-74
2022/11/08 00:29:42;;;;;;;10.25;5.03;;;8.50;99.90;;;7.39;100.00;97332.56;5031909;28;20395;-74
2022/11/08 00:32:12;;;;;;;11.33;5.43;;;8.50;99.90;;;7.34;100.00;97335.91;5031907;28;20807;-74
2022/11/08 00:34:38;;;;;;;8.15;5.10;;;8.40;99.90;;;7.29;100.00;97329.75;5030720;28;20431;-74
2022/11/08 00:37:06;;;;;;;8.43;5.03;;;8.40;99.90;;;7.23;100.00;97323.56;5031805;28;20417;-74
2022/11/08 00:39:32;;;;;;;14.55;5.85;;;8.30;99.90;;;7.20;100.00;97326.66;5031543;28;20869;-74
2022/11/08 00:41:58;;;;;;;10.63;5.18;;;8.30;99.90;;;7.15;100.00;97318.63;5031604;28;20434;-74
2022/11/08 00:44:24;;;;;;;12.55;4.78;;;8.30;99.90;;;7.11;100.00;97325.41;5030733;28;20421;-74
2022/11/08 00:46:50;;;;;;;9.55;5.00;;;8.20;99.90;;;7.10;100.00;97326.44;5031283;28;20414;-74
2022/11/08 00:49:16;;;;;;;11.80;5.30;;;8.20;99.90;;;7.11;100.00;97325.41;5031399;28;20415;-74
2022/11/08 00:51:42;;;;;;;9.98;4.97;;;8.20;99.90;;;7.14;100.00;97321.53;5031040;28;20761;-75
2022/11/08 00:54:14;;;;;;;11.20;4.38;;;8.20;99.90;;;7.08;100.00;97317.97;5030449;28;20403;-75
2022/11/08 00:56:40;;;;;;;8.15;4.38;;;8.20;99.90;;;7.07;100.00;97321.63;5031079;28;20395;-74
2022/11/08 00:59:06;;;;;;;10.63;4.80;;;8.20;99.90;;;7.03;100.00;97315.22;5031383;28;20403;-74
2022/11/08 01:01:32;;;;;;;14.53;5.07;;;8.10;99.90;;;7.01;100.00;97317.28;5031150;28;20425;-74
2022/11/08 01:03:58;;;;;;;8.80;4.45;;;8.10;99.90;;;6.96;100.00;97315.34;5030344;28;20479;-74
2022/11/08 01:06:25;;;;;;;8.40;4.22;;;8.10;99.90;;;6.91;100.00;97309.19;5013195;28;20454;-74
2022/11/08 01:08:51;;;;;;;10.10;4.80;;;8.00;99.90;;;6.88;100.00;97305.16;5031116;28;20407;-74
2022/11/08 01:11:21;;;;;;;7.17;4.60;;;8.00;99.90;;;6.86;100.00;97304.59;5013324;28;20410;-74
2022/11/08 01:13:48;;;;;;;12.23;4.90;;;8.00;99.90;;;6.86;100.00;97307.22;5030188;28;20399;-74
2022/11/08 01:16:16;;;;;;;9.07;4.75;;;8.00;99.90;;;6.84;100.00;97304.00;5030613;28;20410;-74
2022/11/08 01:18:43;;;;;;;11.90;4.47;;;7.90;99.90;;;6.84;100.00;97301.38;5013237;28;20410;-74
2022/11/08 01:21:10;;;;;;;12.90;4.97;;;7.90;99.90;;;6.83;100.00;97304.25;5030935;28;20473;-74
2022/11/08 01:23:37;;;;;;;10.65;4.60;;;7.90;99.90;;;6.81;100.00;97290.53;5029867;28;20403;-74
2022/11/08 01:26:05;;;;;;;11.60;4.82;;;7.90;99.90;;;6.78;100.00;97288.34;5030676;28;20415;-74
2022/11/08 01:28:32;;;;;;;11.23;4.78;;;7.90;99.90;;;6.75;100.00;97294.88;5030703;28;20403;-74
2022/11/08 01:31:03;;;;;;;9.38;4.75;;;7.90;99.90;;;6.74;100.00;97292.47;5030745;28;20970;-74
2022/11/08 01:33:30;;;;;;;7.93;4.40;;;7.80;99.90;;;6.71;100.00;97296.34;5012150;28;20856;-74
2022/11/08 01:35:56;;;;;;;7.43;4.25;;;7.80;99.90;;;6.72;100.00;97294.53;5030256;28;20876;-73
2022/11/08 01:38:22;;;;;;;15.00;4.72;;;7.80;99.90;;;6.69;100.00;97290.50;5030676;28;20415;-73
2022/11/08 01:40:48;;;;;;;12.73;4.80;;;7.80;99.90;;;6.68;100.00;97288.94;5030627;28;20561;-73
2022/11/08 01:43:37;;;;;;;9.90;4.70;;;7.80;99.90;;;6.68;100.00;97288.94;5029800;28;20498;-72
2022/11/08 01:46:38;;;;;;;12.40;4.25;;;7.80;99.90;;;6.66;100.00;97274.41;5030200;28;20450;-74
2022/11/08 01:49:38;;;;;;;13.17;4.80;;;7.80;99.90;;;6.63;100.00;97270.38;5030495;28;20422;-74
2022/11/08 01:52:20;;;;;;;8.93;4.70;;;7.70;99.90;;;6.62;100.00;97266.16;5030557;28;20395;-74
2022/11/08 01:54:55;;;;;;;9.37;4.20;;;7.70;99.90;;;6.58;100.00;97262.38;5029592;28;20437;-74
2022/11/08 01:57:27;;;;;;;6.22;4.10;;;7.70;99.90;;;6.57;100.00;97263.41;5051752;22;20429;-76
2022/11/08 01:59:59;;;;;;;9.70;5.20;;;7.70;99.90;;;6.56;100.00;97257.34;5050168;28;20409;-76
2022/11/08 02:02:26;;;;;;;9.55;4.22;;;7.70;99.90;;;6.57;100.00;97237.91;5050122;28;20400;-75
2022/11/08 02:04:53;;;;;;;9.32;4.50;;;7.70;99.90;;;6.56;100.00;97241.56;5048513;28;20393;-75
2022/11/08 02:07:19;;;;;;;10.02;4.57;;;7.70;99.90;;;6.54;100.00;97237.59;5040589;28;20473;-75
2022/11/08 02:09:47;;;;;;;9.73;4.75;;;7.60;99.90;;;6.53;100.00;97233.34;5030214;28;20414;-76
2022/11/08 02:12:15;;;;;;;9.45;4.40;;;7.60;99.90;;;6.51;100.00;97232.78;5030053;28;20407;-75
2022/11/08 02:14:41;;;;;;;13.23;4.47;;;7.60;99.90;;;6.49;100.00;97233.00;5027840;28;20438;-76
2022/11/08 02:17:09;;;;;;;9.93;4.20;;;7.60;99.90;;;6.48;100.00;97230.59;5030004;28;20394;-75
2022/11/08 02:19:41;;;;;;;7.40;3.90;;;7.60;99.90;;;6.50;100.00;97231.97;5029983;28;20777;-76
2022/11/08 02:22:20;;;;;;;7.13;4.30;;;7.60;99.90;;;6.48;100.00;97223.50;5045435;28;20465;-75
2022/11/08 02:24:47;;;;;;;10.40;4.38;;;7.60;99.90;;;6.49;100.00;97219.06;5029068;28;20402;-75
2022/11/08 02:27:13;;;;;;;9.63;4.18;;;7.60;99.90;;;6.50;100.00;97225.91;5029807;28;20991;-76
2022/11/08 02:29:40;;;;;;;10.10;4.67;;;7.60;99.90;;;6.52;100.00;97223.88;5029933;28;20489;-75
2022/11/08 02:32:06;;;;;;;11.40;4.00;;;7.60;99.90;;;6.51;100.00;97219.63;5028316;28;20411;-75
2022/11/08 02:34:36;;;;;;;9.60;4.07;;;7.60;99.90;;;6.51;100.00;97214.38;5028623;28;20410;-75
2022/11/08 02:37:04;;;;;;;8.45;3.88;;;7.60;99.90;;;6.47;100.00;97211.38;5029381;28;20410;-75
2022/11/08 02:39:31;;;;;;;9.07;3.97;;;7.60;99.90;;;6.46;100.00;97207.19;5029725;28;20877;-75
2022/11/08 02:42:00;;;;;;;8.18;4.30;;;7.60;99.90;;;6.45;100.00;97202.94;5029827;28;20403;-76
2022/11/08 02:44:26;;;;;;;10.50;4.05;;;7.60;99.90;;;6.44;100.00;97205.81;5028854;28;20851;-76
2022/11/08 02:46:52;;;;;;;12.00;3.88;;;7.60;99.90;;;6.42;100.00;97202.59;5029399;28;20613;-75
2022/11/08 02:49:18;;;;;;;10.43;3.83;;;7.50;99.90;;;6.41;100.00;97203.63;5029632;28;20966;-76
2022/11/08 02:51:44;;;;;;;7.68;3.80;;;7.50;99.90;;;6.41;100.00;97195.72;5029697;28;20419;-76
2022/11/08 02:54:09;;;;;;;7.70;3.95;;;7.50;99.90;;;6.38;100.00;97193.56;5028899;28;20501;-76
2022/11/08 02:56:35;;;;;;;12.27;4.50;;;7.50;99.90;;;6.34;100.00;97197.66;5029337;28;20418;-76
2022/11/08 02:59:03;;;;;;;9.83;4.37;;;7.50;99.90;;;6.33;100.00;97194.25;5029694;28;20472;-76
2022/11/08 03:01:28;;;;;;;9.25;3.90;;;7.40;99.90;;;6.31;100.00;97193.69;5029591;28;20410;-76
2022/11/08 03:03:54;;;;;;;12.27;4.53;;;7.40;99.90;;;6.32;100.00;97181.31;5028776;28;20460;-76
2022/11/08 03:06:20;;;;;;;9.55;4.47;;;7.50;99.90;;;6.30;100.00;97184.19;5029129;28;20419;-75
2022/11/08 03:08:46;;;;;;;12.00;4.40;;;7.40;99.90;;;6.31;100.00;97187.63;5029534;28;20427;-76
2022/11/08 03:11:12;;;;;;;10.67;4.40;;;7.40;99.90;;;6.33;100.00;97191.63;5029638;28;20494;-75
2022/11/08 03:13:38;;;;;;;6.82;4.03;;;7.40;99.90;;;6.33;100.00;97182.94;5028673;28;20414;-76
2022/11/08 03:16:06;;;;;;;11.98;4.90;;;7.40;99.90;;;6.29;100.00;97182.59;5032068;28;20407;-76
2022/11/08 03:18:32;;;;;;;9.13;4.17;;;7.40;99.90;;;6.31;100.00;97185.00;5033249;28;20823;-75
2022/11/08 03:20:59;;;;;;;9.00;4.03;;;7.40;99.90;;;6.28;100.00;97185.44;5033109;28;20405;-75
2022/11/08 03:23:25;;;;;;;10.20;4.13;;;7.40;99.90;;;6.25;100.00;97184.06;5034312;28;20460;-76
2022/11/08 03:25:51;;;;;;;8.73;4.80;;;7.40;99.90;;;6.28;100.00;97188.06;5032985;28;20896;-75
2022/11/08 03:28:17;;;;;;;10.82;4.88;;;7.40;99.90;;;6.28;100.00;97191.50;5032981;28;20395;-76
2022/11/08 03:30:43;;;;;;;9.65;4.20;;;7.40;99.90;;;6.26;100.00;97190.94;5033023;28;20764;-76
2022/11/08 03:33:10;;;;;;;9.32;4.25;;;7.40;99.90;;;6.26;100.00;97188.28;5047570;28;20465;-76
2022/11/08 03:35:36;;;;;;;8.57;4.33;;;7.40;99.90;;;6.23;100.00;97194.03;5032522;28;20425;-76
2022/11/08 03:38:02;;;;;;;10.55;4.65;;;7.40;99.90;;;6.20;100.00;97189.22;5032896;28;20411;-77
2022/11/08 03:40:28;;;;;;;12.77;4.40;;;7.30;99.90;;;6.17;100.00;97195.72;5032996;28;20407;-77
2022/11/08 03:42:56;;;;;;;11.73;4.20;;;7.30;99.90;;;6.14;100.00;97201.44;5032026;28;20908;-76
2022/11/08 03:45:22;;;;;;;10.80;4.28;;;7.30;99.90;;;6.11;100.00;97195.81;5032894;28;20395;-76
2022/11/08 03:47:48;;;;;;;10.35;4.47;;;7.20;99.90;;;6.07;100.00;97198.13;5032660;28;20509;-75
2022/11/08 03:50:16;;;;;;;9.95;4.25;;;7.20;99.90;;;6.05;100.00;97191.47;5032640;28;20503;-77
2022/11/08 03:52:43;;;;;;;8.10;4.32;;;7.20;99.90;;;6.03;100.00;97183.03;5031966;28;20403;-76
2022/11/08 03:55:11;;;;;;;8.57;4.38;;;7.20;99.90;;;6.00;100.00;97188.75;5032391;28;20591;-76
2022/11/08 03:57:37;;;;;;;12.98;4.57;;;7.10;99.90;;;5.98;100.00;97188.97;5032278;28;20407;-76
2022/11/08 04:00:06;;;;;;;8.35;4.60;;;7.10;99.90;;;5.92;100.00;97184.63;5047800;28;20417;-76
2022/11/08 04:02:32;;;;;;;10.27;4.93;;;7.10;99.90;;;5.90;100.00;97181.41;5032468;28;20488;-76
2022/11/08 04:04:59;;;;;;;13.70;5.25;;;7.00;99.90;;;5.89;100.00;97186.88;5031313;28;20461;-76
2022/11/08 04:07:27;;;;;;;13.87;4.37;;;7.00;99.90;;;5.88;100.00;97185.28;5032063;28;20469;-76
2022/11/08 04:09:53;;;;;;;9.97;4.60;;;7.00;99.90;;;5.88;100.00;97191.34;5032359;28;20441;-76
2022/11/08 04:15:13;;;;;;;12.27;4.53;;;7.00;99.90;;;5.86;100.00;97184.69;5031472;28;20404;-76
2022/11/08 04:23:10;;;;;;;10.35;4.40;;;7.00;99.90;;;5.87;100.00;97171.31;5031369;28;20403;-75
2022/11/08 04:25:36;;;;;;;8.57;4.85;;;7.00;99.90;;;5.89;100.00;97181.63;5031841;28;20764;-76
2022/11/08 04:28:02;;;;;;;10.25;4.60;;;7.00;99.90;;;5.90;100.00;97175.34;5031147;28;20418;-76
2022/11/08 04:30:28;;;;;;;6.07;4.20;;;7.00;99.90;;;5.90;100.00;97172.72;5032018;28;20407;-76
2022/11/08 04:32:54;;;;;;;7.73;4.60;;;7.00;99.90;;;5.89;100.00;97168.50;5030901;28;20493;-76
2022/11/08 04:35:20;;;;;;;10.18;4.72;;;7.00;99.90;;;5.89;100.00;97160.63;5031715;28;20761;-75
2022/11/08 04:37:46;;;;;;;12.27;5.20;;;7.00;99.90;;;5.90;100.00;97164.84;5031744;28;20411;-76
2022/11/08 04:40:13;;;;;;;11.27;4.65;;;7.00;99.90;;;5.88;100.00;97165.06;5031837;28;20408;-76
2022/11/08 04:42:43;;;;;;;11.13;4.40;;;7.00;99.90;;;5.87;100.00;97162.63;5031559;28;20414;-76
2022/11/08 04:45:09;;;;;;;14.68;4.50;;;7.00;99.90;;;5.85;100.00;97152.38;5031329;28;20950;-76
2022/11/08 04:47:35;;;;;;;9.25;4.32;;;7.00;99.90;;;5.87;100.00;97163.44;5047445;28;20986;-76
2022/11/08 04:50:01;;;;;;;6.60;4.13;;;7.00;99.90;;;5.86;100.00;97142.66;5041383;28;20411;-75
2022/11/08 04:52:28;;;;;;;7.45;4.50;;;7.00;99.90;;;5.81;100.00;97143.34;5051240;28;20825;-76
2022/11/08 04:54:53;;;;;;;9.00;4.43;;;7.00;99.90;;;5.79;100.00;97138.28;5043848;28;20414;-75
2022/11/08 04:57:21;;;;;;;10.30;4.95;;;6.90;99.90;;;5.76;100.00;97140.59;5032828;28;20410;-73
2022/11/08 04:59:47;;;;;;;9.73;4.72;;;6.90;99.90;;;5.74;100.00;97140.00;5031396;28;20406;-74
2022/11/08 05:02:12;;;;;;;13.77;5.25;;;6.90;99.90;;;5.74;100.00;97140.81;5031357;28;20399;-76
2022/11/08 05:04:38;;;;;;;9.23;4.57;;;6.80;99.90;;;5.76;100.00;97130.09;5030399;28;20442;-76
2022/11/08 05:07:04;;;;;;;14.07;4.60;;;6.80;99.90;;;5.72;100.00;97132.34;5031084;28;20427;-75
2022/11/08 05:09:30;;;;;;;6.78;4.72;;;6.90;99.90;;;5.71;100.00;97128.13;5031159;28;20473;-74
2022/11/08 05:11:56;;;;;;;6.45;3.92;;;6.90;99.90;;;5.70;100.00;97123.94;5031133;28;20399;-74
2022/11/08 05:14:23;;;;;;;9.10;4.10;;;6.80;99.90;;;5.69;100.00;97122.31;5029941;28;20441;-76
2022/11/08 05:16:49;;;;;;;9.70;4.30;;;6.80;99.90;;;5.74;100.00;97122.44;5030713;28;20426;-75
2022/11/08 05:23:22;;;;;;;8.90;4.57;;;6.80;99.90;;;5.69;100.00;97130.19;5036492;28;20402;-80
2022/11/08 05:24:46;;;;;;;10.30;4.70;;;6.80;99.90;;;5.60;100.00;97121.03;5035148;28;20459;-75
2022/11/08 05:27:12;;;;;;;13.18;5.22;;;6.80;99.90;;;5.61;100.00;97124.47;5039312;28;20413;-74
2022/11/08 05:29:39;;;;;;;10.05;4.60;;;6.80;99.90;;;5.64;100.00;97124.81;5036995;28;20513;-75
2022/11/08 05:32:05;;;;;;;11.93;5.13;;;6.80;99.90;;;5.69;100.00;97129.41;5036713;28;20909;-76
2022/11/08 05:34:31;;;;;;;9.63;4.70;;;6.80;99.90;;;5.72;100.00;97121.03;5035019;28;20439;-75
2022/11/08 05:36:57;;;;;;;12.90;4.90;;;6.80;99.90;;;5.77;100.00;97115.94;5039538;28;20440;-76
2022/11/08 05:39:22;;;;;;;7.78;4.50;;;6.90;99.90;;;5.85;100.00;97120.84;5036616;28;20407;-76
2022/11/08 05:41:48;;;;;;;8.75;4.95;;;6.90;99.90;;;5.87;100.00;97117.97;5030271;28;20889;-76
2022/11/08 05:44:14;;;;;;;12.07;4.82;;;7.00;99.90;;;5.90;100.00;97122.81;5029602;28;20437;-76
2022/11/08 05:46:42;;;;;;;9.73;4.40;;;7.00;99.90;;;5.91;100.00;97116.53;5039758;28;20417;-75
2022/11/08 05:49:08;;;;;;;8.37;4.17;;;7.00;99.90;;;5.91;100.00;97106.03;5047088;28;20409;-76
2022/11/08 05:51:34;;;;;;;7.82;4.28;;;7.00;99.90;;;5.90;100.00;97112.31;5028829;28;20415;-75
2022/11/08 05:54:00;;;;;;;7.15;3.70;;;7.00;99.90;;;5.96;100.00;97114.81;5040802;28;20433;-75
2022/11/08 05:56:26;;;;;;;6.43;4.05;;;7.00;99.90;;;5.94;100.00;97111.63;5029602;28;20399;-76
2022/11/08 05:58:52;;;;;;;8.97;3.90;;;7.10;99.90;;;5.98;100.00;97120.66;5027951;28;20472;-74
2022/11/08 06:01:19;;;;;;;7.25;4.25;;;7.10;99.90;;;6.00;100.00;97109.94;5029943;28;20402;-75
2022/11/08 06:03:47;;;;;;;9.27;4.50;;;7.10;99.90;;;6.04;100.00;97116.31;5044553;28;20414;-75
2022/11/08 06:06:15;;;;;;;5.93;3.70;;;7.20;99.90;;;6.04;100.00;97109.22;5029931;28;20461;-75
2022/11/08 06:08:41;;;;;;;7.15;4.10;;;7.10;99.90;;;6.08;100.00;97102.50;5029950;28;20451;-77
2022/11/08 06:11:10;;;;;;;5.82;3.85;;;7.20;99.90;;;6.11;100.00;97106.47;5030224;28;20418;-76
2022/11/08 06:13:36;;;;;;;7.90;4.18;;;7.20;99.90;;;6.15;100.00;97112.91;5029226;28;20496;-78
2022/11/08 06:16:05;;;;;;;9.55;3.92;;;7.20;99.90;;;6.15;100.00;97115.53;5029893;28;20398;-78
2022/11/08 06:18:32;;;;;;;8.18;3.92;;;7.30;99.90;;;6.12;100.00;97105.47;5029779;28;20893;-78
2022/11/08 06:21:01;;;;;;;8.02;3.63;;;7.20;99.90;;;6.14;100.00;97113.91;5029903;28;20406;-76
2022/11/08 06:23:28;;;;;;;6.95;3.38;;;7.20;99.90;;;6.14;100.00;97111.28;5022511;28;20434;-76
2022/11/08 06:25:54;;;;;;;6.40;3.85;;;7.20;99.90;;;6.09;100.00;97109.34;5027767;28;20450;-76
2022/11/08 06:28:20;;;;;;;6.20;3.63;;;7.20;99.90;;;6.09;100.00;97100.69;5029505;28;20572;-76
2022/11/08 06:30:47;;;;;;;7.03;3.60;;;7.20;99.90;;;6.04;100.00;97109.22;5029614;28;20493;-75
2022/11/08 06:33:13;;;;;;;9.80;3.72;;;7.10;99.90;;;6.02;100.00;97108.66;5028884;28;20395;-76
2022/11/08 06:35:39;;;;;;;7.63;4.18;;;7.10;99.90;;;5.99;100.00;97116.22;5029218;28;20403;-74
2022/11/08 06:38:06;;;;;;;7.95;3.90;;;7.10;99.90;;;5.95;100.00;97110.59;5029517;28;20903;-76
2022/11/08 06:40:32;;;;;;;11.98;4.10;;;7.10;99.90;;;5.96;100.00;97117.44;5029632;28;20889;-76
2022/11/08 06:42:59;;;;;;;6.65;3.83;;;7.10;99.90;;;5.93;100.00;97123.19;5028409;28;20411;-76
2022/11/08 06:45:26;;;;;;;7.25;4.00;;;7.10;99.90;;;5.92;100.00;97115.53;5029174;28;20469;-76
2022/11/08 06:47:56;;;;;;;7.80;3.92;;;7.10;99.90;;;5.91;100.00;97112.09;5029183;28;20970;-76
2022/11/08 06:50:22;;;;;;;8.02;4.40;;;7.00;99.90;;;5.93;100.00;97111.88;5030850;28;20948;-76
2022/11/08 06:52:55;;;;;;;7.93;3.80;;;7.00;99.90;;;5.94;100.00;97109.00;5032484;28;20482;-76
2022/11/08 06:55:22;;;;;;;8.38;4.20;;;7.10;99.90;;;5.93;100.00;97110.03;5033484;28;20402;-77
2022/11/08 06:57:48;;;;;;;7.05;3.60;;;7.00;99.90;;;5.96;100.00;97108.78;5031953;28;20422;-76
2022/11/08 07:00:16;;;;;;;12.07;4.30;;;7.10;99.90;;;5.98;100.00;97107.53;5033366;28;20776;-77
2022/11/08 07:02:43;;;;;;;7.78;3.75;;;7.10;99.90;;;6.08;100.00;97115.66;5032814;28;20413;-76
2022/11/08 07:05:09;;;;;;;8.07;3.50;;;7.10;99.90;;;6.10;100.00;97115.41;5032941;28;20465;-76
2022/11/08 07:07:35;;;;;;;9.10;4.28;;;7.20;99.90;;;6.15;100.00;97115.53;5032853;28;20501;-76
2022/11/08 07:10:01;;;;;;;6.53;4.13;;;7.20;99.90;;;6.25;100.00;97109.66;5033197;28;20419;-76
2022/11/08 07:12:28;;;;;;;10.68;4.25;;;7.30;99.90;;;6.28;100.00;97117.09;5033142;28;20403;-76
2022/11/08 07:14:54;;;;;;;8.27;3.88;;;7.40;99.90;;;6.35;100.00;97123.84;5031896;28;20407;-76
2022/11/08 07:17:20;;;;;;;8.67;4.20;;;7.40;99.90;;;6.51;100.00;97120.50;5032801;28;20407;-76
2022/11/08 07:19:46;;;;;;;6.35;3.53;;;7.60;99.90;;;6.58;100.00;97128.28;5032694;28;20406;-76
2022/11/08 07:22:11;;;;;;;7.72;3.75;;;7.60;99.90;;;6.67;100.00;97129.53;5030164;28;20464;-76
2022/11/08 07:24:37;;;;;;;7.65;3.80;;;7.70;99.90;;;6.80;100.00;97128.44;5026768;28;20404;-76
2022/11/08 07:27:03;;;;;;;6.45;3.30;;;7.80;99.90;;;6.93;100.00;97122.91;5031744;28;20497;-76
2022/11/08 07:29:31;;;;;;;7.80;3.70;;;7.90;99.90;;;7.01;100.00;97133.06;5032765;28;20403;-76
2022/11/08 07:31:57;;;;;;;7.47;3.23;;;8.00;99.90;;;7.03;100.00;97128.38;5030671;28;20509;-76
2022/11/08 07:34:23;;;;;;;4.75;3.20;;;8.10;99.90;;;7.15;100.00;97129.13;5028649;28;20400;-76
2022/11/08 07:36:49;;;;;;;8.10;3.40;;;8.10;99.90;;;7.11;100.00;97124.56;5032558;28;20394;-76
2022/11/08 07:39:15;;;;;;;5.70;3.30;;;8.10;99.90;;;7.09;100.00;97124.81;5031510;28;20411;-76
2022/11/08 07:41:40;;;;;;;7.63;3.15;;;8.10;99.90;;;7.15;100.00;97125.69;5032539;28;20418;-76
2022/11/08 07:44:06;;;;;;;5.55;3.00;;;8.10;99.90;;;7.14;100.00;97121.47;5032054;28;20403;-76
2022/11/08 07:46:34;;;;;;;6.50;3.17;;;8.20;99.90;;;7.12;100.00;97119.09;5032612;28;20923;-76
2022/11/08 07:48:59;;;;;;;6.63;3.20;;;8.20;99.90;;;7.10;100.00;97122.97;5032458;28;20725;-76
2022/11/08 07:51:25;;;;;;;9.77;3.23;;;8.10;99.90;;;7.17;100.00;97105.22;5047828;28;20411;-77
2022/11/08 07:53:51;;;;;;;3.45;2.55;;;8.20;99.90;;;7.15;100.00;97089.63;5031683;28;20458;-76
2022/11/08 07:56:17;;;;;;;4.40;2.72;;;8.20;99.90;;;7.16;100.00;97079.91;5032234;28;20511;-76
2022/11/08 07:58:43;;;;;;;6.45;2.80;;;8.20;99.90;;;7.16;100.00;97066.75;5066924;22;20853;-74
2022/11/08 08:01:09;;;;;;;5.47;2.80;;;8.20;99.90;;;7.16;100.00;97072.03;5059765;28;20484;-72
2022/11/08 08:03:36;;;;;;;4.13;2.80;;;8.20;99.90;;;7.21;100.00;97070.28;5069831;28;20400;-72
2022/11/08 08:06:02;;;;;;;7.78;3.13;;;8.20;99.90;;;7.25;100.00;97076.66;5064972;28;20491;-72
2022/11/08 08:08:29;;;;;;;4.68;2.92;;;8.30;99.90;;;7.33;100.00;97073.66;5038652;28;20413;-72
2022/11/08 08:10:57;;;;;;;4.05;2.90;;;8.30;99.90;;;7.47;100.00;97079.41;5050482;28;20398;-73
2022/11/08 08:13:23;;;;;;;5.18;2.67;;;8.40;99.90;;;7.74;100.00;97087.50;5042405;28;20920;-73
2022/11/08 08:15:49;;;;;;;9.23;2.70;;;8.60;99.90;;;7.75;100.00;97091.69;5051928;28;20515;-73
2022/11/08 08:18:18;;;;;;;4.38;2.15;;;8.70;99.90;;;7.93;100.00;97088.03;5052058;28;20524;-73
2022/11/08 08:20:45;;;;;;;3.30;2.45;;;8.80;99.90;;;8.26;100.00;97109.09;5045432;28;20402;-72
2022/11/08 08:23:11;;;;;;;5.93;2.60;;;9.10;99.90;;;8.38;100.00;97101.88;5033047;28;20411;-72
2022/11/08 08:25:37;;;;;;;4.65;2.35;;;9.30;99.90;;;8.52;100.00;97102.31;5051945;28;20405;-72
2022/11/08 08:28:04;;;;;;;4.63;2.35;;;9.40;99.90;;;8.63;100.00;97113.81;5051384;28;20471;-72
2022/11/08 08:30:32;;;;;;;4.57;2.45;;;9.50;99.90;;;8.66;100.00;97113.31;5038648;28;20417;-71
2022/11/08 08:33:03;;;;;;;6.07;2.40;;;9.60;99.90;;;8.77;100.00;97110.56;5044271;28;20405;-72
2022/11/08 08:35:29;;;;;;;4.97;2.60;;;9.70;99.90;;;8.89;100.00;97105.94;5040827;28;20405;-72
2022/11/08 08:37:59;;;;;;;4.20;2.40;;;9.80;99.90;;;9.14;100.00;97102.78;5018415;28;20403;-72
2022/11/08 08:40:25;;;;;;;4.83;2.50;;;10.00;99.90;;;9.16;100.00;97110.47;5037474;28;20409;-72
2022/11/08 08:42:50;;;;;;;6.82;2.50;;;10.10;99.90;;;9.27;100.00;97104.22;5050652;28;20400;-72
2022/11/08 08:45:16;;;;;;;5.25;2.58;;;10.20;99.90;;;9.55;100.00;97111.88;5033723;28;20988;-73
2022/11/08 08:47:42;;;;;;;3.88;2.28;;;10.40;99.90;;;9.63;100.00;97108.78;5051311;28;20547;-72
2022/11/08 08:50:09;;;;;;;4.63;2.10;;;10.50;99.90;;;9.93;100.00;97105.59;5051420;28;20520;-72
2022/11/08 08:52:35;;;;;;;5.72;2.15;;;10.70;99.90;;;9.88;100.00;97104.75;5051390;28;20429;-72
2022/11/08 08:55:02;;;;;;;3.60;2.20;;;10.80;99.90;;;10.01;100.00;97117.53;5017071;28;20412;-72
2022/11/08 08:57:28;;;;;;;3.47;2.00;;;10.90;99.90;;;9.98;100.00;97112.78;5045077;28;20409;-72
2022/11/08 08:59:54;;;;;;;2.30;1.77;;;10.90;99.90;;;9.95;100.00;97115.91;5031395;28;20422;-72
2022/11/08 09:02:20;;;;;;;3.13;2.00;;;10.80;99.90;;;9.94;100.00;97107.19;5031332;28;20443;-71
2022/11/08 09:04:46;;;;;;;5.90;1.95;;;10.80;99.90;;;10.08;100.00;97113.63;5012556;28;20430;-73
2022/11/08 09:07:11;;;;;;;4.38;2.20;;;10.90;99.90;;;10.15;100.00;97121.34;5030991;28;20422;-72
2022/11/08 09:09:37;;;;;;;5.53;1.80;;;11.00;99.90;;;10.14;100.00;97122.41;5031139;28;20477;-73
2022/11/08 09:12:05;;;;;;;3.40;1.90;;;10.90;99.90;;;10.37;100.00;97126.56;5030992;28;20418;-72
2022/11/08 09:14:31;;;;;;;6.90;1.92;;;11.10;99.90;;;10.29;100.00;97124.41;5029910;28;20403;-72
2022/11/08 09:16:57;;;;;;;4.37;1.80;;;11.10;99.90;;;10.39;100.00;97125.25;5030987;28;20802;-72
2022/11/08 09:19:25;;;;;;;5.55;2.10;;;11.20;99.90;;;10.46;100.00;97132.94;5012752;28;21225;-72
2022/11/08 09:21:51;;;;;;;4.50;1.65;;;11.30;99.90;;;10.60;100.00;97126.13;5010002;28;20409;-72
2022/11/08 09:24:17;;;;;;;3.00;1.80;;;11.40;99.90;;;10.64;100.00;97137.81;5034761;28;20429;-72
2022/11/08 09:26:43;;;;;;;4.43;1.90;;;11.50;99.90;;;10.81;100.00;97135.00;5035516;28;20480;-72
2022/11/08 09:29:10;;;;;;;2.40;1.60;;;11.60;99.90;;;11.01;100.00;97137.72;5011045;28;20409;-72
2022/11/08 09:31:36;;;;;;;4.57;1.60;;;11.90;99.90;;;11.19;100.00;97142.56;5011294;28;20487;-71
2022/11/08 09:34:02;;;;;;;3.67;1.80;;;12.00;99.90;;;11.53;95.50;97142.09;5030605;28;20498;-70
2022/11/08 09:36:28;;;;;;;3.47;1.83;;;12.20;99.90;;;11.44;94.43;97141.00;5040159;28;20451;-71
2022/11/08 09:38:53;;;;;;;2.30;1.50;;;12.30;99.90;;;11.31;100.00;97146.81;5029089;28;20399;-70
2022/11/08 09:42:00;;;;;;;2.67;1.70;;;12.10;99.90;;;11.03;100.00;97146.22;5023538;28;20420;-71
2022/11/08 09:44:52;;;;;;;2.63;1.58;;;12.00;99.90;;;11.25;100.00;97157.41;5020030;28;20397;-71
2022/11/08 09:47:22;;;;;;;2.83;1.60;;;11.90;99.90;;;11.31;100.00;97147.63;5019495;28;20420;-70
2022/11/08 09:50:00;;;;;;;2.50;1.80;;;12.10;99.90;;;11.33;99.62;97153.47;5018588;28;20923;-70
2022/11/08 09:52:29;;;;;;;3.57;1.60;;;12.20;99.90;;;11.59;98.42;97152.44;5018890;28;20395;-71
2022/11/08 09:55:19;;;;;;;2.95;1.80;;;12.20;99.90;;;12.07;90.13;97147.75;5018462;28;20415;-70
2022/11/08 09:57:57;;;;;;;2.97;1.70;;;12.80;99.90;;;11.89;91.52;97142.94;5020433;28;20408;-70
2022/11/08 10:00:25;;;;;;;2.77;1.40;;;12.70;99.90;;;11.82;93.77;97143.22;5020360;28;20408;-71
2022/11/08 10:02:51;;;;;;;3.72;1.52;;;12.60;99.90;;;11.86;91.41;97144.28;5017886;28;20405;-70
2022/11/08 10:05:18;;;;;;;3.47;1.65;;;12.70;99.90;;;11.78;92.56;97139.50;5020234;28;20408;-70
2022/11/08 10:07:53;;;;;;;2.17;1.52;;;12.60;99.90;;;11.77;95.03;97137.13;5020162;28;20433;-70
2022/11/08 10:11:00;;;;;;;4.05;1.58;;;12.60;99.90;;;11.86;91.31;97141.66;5019661;28;20751;-70
2022/11/08 10:13:37;;;;;;;4.20;1.70;;;12.50;99.90;;;11.96;88.73;97141.63;5019950;28;20401;-70
2022/11/08 10:16:17;;;;;;;3.20;1.50;;;12.60;99.90;;;12.02;86.10;97137.13;5020253;28;20416;-71
2022/11/08 10:19:10;;;;;;;3.40;1.58;;;12.80;99.90;;;11.71;87.38;97144.25;5020044;28;20432;-70
2022/11/08 10:21:55;;;;;;;2.65;1.60;;;12.50;99.90;;;11.59;94.44;97149.78;5019235;28;20882;-70
2022/11/08 10:24:36;;;;;;;2.65;1.50;;;12.40;99.90;;;11.54;100.00;97144.50;5019417;28;20490;-70
2022/11/08 10:27:09;;;;;;;4.95;1.63;;;12.30;99.90;;;11.76;93.97;97133.69;5019782;28;20420;-71
2022/11/08 10:29:42;;;;;;;4.18;1.65;;;12.50;99.90;;;11.79;96.38;97132.34;5018953;28;20429;-70
2022/11/08 10:32:17;;;;;;;3.53;1.88;;;12.40;99.90;;;11.65;96.58;97129.41;5018633;28;20929;-70
2022/11/08 10:34:49;;;;;;;4.30;2.60;;;12.40;99.90;;;11.49;95.52;97136.53;5018804;28;20416;-71
2022/11/08 10:37:16;;;;;;;2.90;1.90;;;12.30;99.90;;;11.49;98.46;97120.63;5008234;28;20456;-70
2022/11/08 10:39:54;;;;;;;2.65;1.60;;;12.30;99.90;;;11.76;94.39;97114.31;5019959;28;20408;-70
2022/11/08 10:42:33;;;;;;;3.67;1.98;;;12.50;99.90;;;11.71;97.46;97122.25;5029904;28;20547;-72
2022/11/08 10:44:59;;;;;;;2.55;1.60;;;12.50;99.90;;;11.71;96.75;97112.44;5006285;28;20456;-72
2022/11/08 10:47:29;;;;;;;2.53;1.65;;;12.50;99.90;;;11.73;94.50;97115.59;5044664;28;20413;-72